Time;durP1;ratioP1;P1;durP2;ratioP2;P2;SDS_P1;SDS_P2;PMS_P1;PMS_P2;Temp;Humidity;BMP_temperature;BMP_pressure;BME280_temperature;BME280_humidity;BME280_pressure;Samples;Min_cycle;Max_cycle;Signal;HPM_P1;HPM_P2
2024/01/07 00:02:25;;;;;;;34.10;22.55;;;;;;;0.92;100.00;101579.31;5062498;28;20460;-82
2024/01/07 00:04:50;;;;;;;34.55;22.50;;;;;;;0.90;100.00;101570.53;5061054;28;20040;-83
2024/01/07 00:07:15;;;;;;;34.83;22.80;;;;;;;0.92;100.00;101575.03;5064801;28;20028;-83
2024/01/07 00:09:41;;;;;;;36.58;23.38;;;;;;;0.91;100.00;101573.22;5037259;28;20504;-81
2024/01/07 00:12:06;;;;;;;35.30;23.02;;;;;;;0.91;100.00;101580.16;5067987;28;20119;-81
2024/01/07 00:14:31;;;;;;;34.97;23.40;;;;;;;0.89;100.00;101574.88;5065398;28;20024;-81
2024/01/07 00:16:58;;;;;;;36.67;23.33;;;;;;;0.88;100.00;101578.28;5065666;28;20467;-80
2024/01/07 00:19:23;;;;;;;35.10;23.38;;;;;;;0.87;100.00;101586.88;5058088;28;20040;-79
2024/01/07 00:21:49;;;;;;;35.53;23.77;;;;;;;0.87;100.00;101592.09;5067332;28;20467;-80
2024/01/07 00:24:15;;;;;;;35.67;23.75;;;;;;;0.88;100.00;101583.47;5064494;28;20035;-81
2024/01/07 00:26:40;;;;;;;35.05;23.70;;;;;;;0.88;100.00;101590.41;5069987;28;20471;-92
2024/01/07 00:29:07;;;;;;;34.88;23.42;;;;;;;0.90;100.00;101592.25;5069741;28;20102;-92
2024/01/07 00:31:32;;;;;;;34.80;23.42;;;;;;;0.89;100.00;101585.28;5071076;28;20040;-93
2024/01/07 00:33:57;;;;;;;35.67;23.77;;;;;;;0.92;100.00;101590.66;5069025;28;20047;-90
2024/01/07 00:36:23;;;;;;;34.70;23.75;;;;;;;0.88;100.00;101593.91;5055445;28;20048;-89
2024/01/07 00:38:48;;;;;;;34.85;23.17;;;;;;;0.89;100.00;101592.19;5069036;28;20032;-94
2024/01/07 00:41:13;;;;;;;34.85;22.95;;;;;;;0.91;100.00;101599.28;5052202;28;20094;-94
2024/01/07 00:43:39;;;;;;;33.75;22.75;;;;;;;0.89;100.00;101603.50;5068898;28;20096;-90
2024/01/07 00:46:04;;;;;;;33.83;22.85;;;;;;;0.93;100.00;101604.56;5067134;28;20032;-90
2024/01/07 00:48:30;;;;;;;33.72;22.98;;;;;;;0.94;100.00;101604.66;5067534;28;20037;-96
2024/01/07 00:50:55;;;;;;;33.80;22.83;;;;;;;0.95;100.00;101608.16;5067482;28;20039;-84
2024/01/07 00:53:20;;;;;;;31.52;20.92;;;;;;;0.90;100.00;101612.19;5066722;28;20087;-82
2024/01/07 00:55:46;;;;;;;31.48;21.15;;;;;;;0.93;100.00;101615.84;5069488;28;20032;-81
2024/01/07 00:58:11;;;;;;;31.00;20.98;;;;;;;0.90;100.00;101607.00;5064880;28;20468;-94
2024/01/07 01:00:36;;;;;;;30.58;20.13;;;;;;;0.89;100.00;101606.13;5058217;28;20033;-93
2024/01/07 01:03:02;;;;;;;29.60;19.77;;;;;;;0.86;100.00;101614.63;5059254;28;20052;-94
2024/01/07 01:05:27;;;;;;;29.52;19.92;;;;;;;0.83;100.00;101617.06;5068353;28;20044;-92
2024/01/07 01:07:52;;;;;;;29.52;19.33;;;;;;;0.84;100.00;101620.56;5055205;28;20435;-84
2024/01/07 01:10:18;;;;;;;30.88;20.33;;;;;;;0.83;100.00;101617.06;5066971;28;20059;-80
2024/01/07 01:12:44;;;;;;;30.10;19.88;;;;;;;0.83;100.00;101624.88;5063536;28;20040;-81
2024/01/07 01:15:10;;;;;;;31.65;20.05;;;;;;;0.88;100.00;101630.34;5066648;28;20456;-86
2024/01/07 01:17:35;;;;;;;30.17;20.25;;;;;;;0.82;100.00;101625.69;5064098;28;20527;-84
2024/01/07 01:20:00;;;;;;;30.63;20.33;;;;;;;0.84;100.00;101628.38;5063811;28;20076;-83
2024/01/07 01:22:26;;;;;;;31.77;20.90;;;;;;;0.85;100.00;101630.19;5065512;28;20025;-79
2024/01/07 01:24:52;;;;;;;30.42;19.95;;;;;;;0.88;100.00;101632.06;5063781;28;20021;-80
2024/01/07 01:27:18;;;;;;;31.65;20.58;;;;;;;0.87;100.00;101628.53;5031952;28;20056;-80
2024/01/07 01:29:43;;;;;;;30.75;20.10;;;;;;;0.79;100.00;101620.31;5049766;28;20041;-80
2024/01/07 01:32:09;;;;;;;31.42;20.38;;;;;;;0.79;100.00;101638.53;5065838;28;20111;-80
2024/01/07 01:34:35;;;;;;;32.72;21.13;;;;;;;0.79;100.00;101635.94;5064186;28;20471;-81
2024/01/07 01:37:01;;;;;;;32.28;20.88;;;;;;;0.79;100.00;101643.75;5047599;28;20029;-79
2024/01/07 01:39:26;;;;;;;33.28;22.55;;;;;;;0.77;100.00;101644.47;5052473;28;20040;-81
2024/01/07 01:41:51;;;;;;;34.35;23.10;;;;;;;0.78;100.00;101648.88;5031324;28;20028;-79
2024/01/07 01:44:17;;;;;;;34.00;22.45;;;;;;;0.75;100.00;101649.56;5062728;28;20021;-79
2024/01/07 01:46:45;;;;;;;34.35;22.85;;;;;;;0.81;100.00;101656.84;5056528;28;20498;-79
2024/01/07 01:49:11;;;;;;;36.25;24.40;;;;;;;0.77;100.00;101660.06;5066145;28;20463;-80
2024/01/07 01:51:36;;;;;;;34.88;22.92;;;;;;;0.81;100.00;101662.94;5062190;28;20393;-80
2024/01/07 01:54:02;;;;;;;35.83;23.98;;;;;;;0.76;100.00;101658.28;5063905;28;20025;-79
2024/01/07 01:56:28;;;;;;;34.95;23.35;;;;;;;0.78;100.00;101667.09;5064483;28;20021;-82
2024/01/07 01:58:55;;;;;;;36.22;23.77;;;;;;;0.76;100.00;101663.47;5064884;28;20537;-80
2024/01/07 02:01:21;;;;;;;35.97;23.63;;;;;;;0.76;100.00;101666.06;5050082;28;20041;-77
2024/01/07 02:03:47;;;;;;;35.40;23.63;;;;;;;0.78;100.00;101669.69;5065895;28;20056;-76
2024/01/07 02:06:13;;;;;;;35.95;24.05;;;;;;;0.78;100.00;101664.47;5062256;28;20033;-78
2024/01/07 02:08:39;;;;;;;36.70;24.10;;;;;;;0.79;100.00;101671.50;5055242;28;20058;-81
2024/01/07 02:11:21;;;;;;;37.45;25.38;;;;;;;0.83;100.00;101676.03;5063466;28;20024;-80
2024/01/07 02:13:47;;;;;;;37.60;25.00;;;;;;;0.79;100.00;101676.69;5065894;28;20021;-81
2024/01/07 02:16:12;;;;;;;37.95;25.40;;;;;;;0.77;100.00;101678.28;5048965;28;20455;-80
2024/01/07 02:18:41;;;;;;;37.63;25.48;;;;;;;0.75;100.00;101683.41;5064978;28;20079;-80
2024/01/07 02:21:07;;;;;;;36.50;24.30;;;;;;;0.74;100.00;101685.94;5063070;28;20032;-81
2024/01/07 02:23:32;;;;;;;37.88;24.95;;;;;;;0.72;100.00;101683.25;5046311;28;20453;-80
2024/01/07 02:25:58;;;;;;;39.10;25.98;;;;;;;0.71;100.00;101683.16;5063949;28;20063;-80
2024/01/07 02:28:23;;;;;;;38.78;25.27;;;;;;;0.69;100.00;101686.56;5027549;28;20036;-80
2024/01/07 02:30:48;;;;;;;39.08;25.65;;;;;;;0.66;100.00;101688.09;5061364;28;20099;-80
2024/01/07 02:33:14;;;;;;;38.65;24.55;;;;;;;0.62;100.00;101697.41;5065510;28;20086;-80
2024/01/07 02:35:39;;;;;;;38.17;24.55;;;;;;;0.62;100.00;101692.22;5062103;28;20036;-79
2024/01/07 02:38:04;;;;;;;37.85;24.65;;;;;;;0.58;100.00;101695.44;5065383;28;20025;-86
2024/01/07 02:40:30;;;;;;;37.95;24.17;;;;;;;0.54;100.00;101689.97;5065785;28;20028;-90
2024/01/07 02:42:56;;;;;;;40.72;25.45;;;;;;;0.61;100.00;101702.53;5064408;28;20033;-83
2024/01/07 02:45:22;;;;;;;39.60;25.17;;;;;;;0.59;100.00;101693.75;5065031;28;20476;-83
2024/01/07 02:47:47;;;;;;;40.88;26.52;;;;;;;0.55;100.00;101703.06;5061788;28;20040;-87
2024/01/07 02:50:13;;;;;;;41.28;26.98;;;;;;;0.57;100.00;101709.28;5060964;28;20024;-91
2024/01/07 02:52:38;;;;;;;41.95;26.75;;;;;;;0.58;100.00;101703.25;5062354;28;20033;-91
2024/01/07 02:55:04;;;;;;;43.75;27.23;;;;;;;0.62;100.00;101705.22;5064825;28;20082;-88
2024/01/07 02:57:29;;;;;;;44.83;29.08;;;;;;;0.61;100.00;101713.88;5064256;28;20036;-91
2024/01/07 02:59:54;;;;;;;46.45;29.58;;;;;;;0.58;100.00;101713.66;5063255;28;20090;-89
2024/01/07 03:02:20;;;;;;;46.67;30.98;;;;;;;0.57;100.00;101717.09;5064985;28;20502;-79
2024/01/07 03:04:45;;;;;;;46.47;30.67;;;;;;;0.58;100.00;101710.16;5061814;28;20029;-80
2024/01/07 03:07:10;;;;;;;46.83;30.88;;;;;;;0.58;100.00;101713.66;5065073;28;20031;-80
2024/01/07 03:09:36;;;;;;;50.00;31.15;;;;;;;0.61;100.00;101715.53;5062897;28;20080;-81
2024/01/07 03:12:01;;;;;;;49.13;31.42;;;;;;;0.58;100.00;101713.66;5063633;28;20021;-80
2024/01/07 03:14:27;;;;;;;50.35;31.17;;;;;;;0.59;100.00;101719.78;5061174;28;20036;-91
2024/01/07 03:16:52;;;;;;;50.47;32.50;;;;;;;0.63;100.00;101729.56;5064744;28;20028;-91
2024/01/07 03:19:18;;;;;;;49.42;32.42;;;;;;;0.61;100.00;101724.28;5062076;28;20029;-91
2024/01/07 03:21:43;;;;;;;51.63;33.10;;;;;;;0.61;100.00;101731.16;5061814;28;20039;-93
2024/01/07 03:24:09;;;;;;;50.47;32.47;;;;;;;0.59;100.00;101736.28;5065838;28;20587;-92
2024/01/07 03:26:34;;;;;;;52.38;32.97;;;;;;;0.58;100.00;101734.47;5064696;28;20029;-94
2024/01/07 03:29:00;;;;;;;51.63;33.17;;;;;;;0.58;100.00;101734.47;5065037;28;20060;-89
2024/01/07 03:31:26;;;;;;;51.75;33.35;;;;;;;0.58;100.00;101739.69;5065372;28;20047;-91
2024/01/07 03:33:51;;;;;;;52.72;33.58;;;;;;;0.61;100.00;101734.69;5064034;28;20025;-93
2024/01/07 03:36:17;;;;;;;52.03;33.65;;;;;;;0.63;100.00;101735.66;5068057;28;20086;-93
2024/01/07 03:38:42;;;;;;;51.08;33.03;;;;;;;0.65;100.00;101735.75;5053333;28;20108;-88
2024/01/07 03:41:08;;;;;;;52.13;33.88;;;;;;;0.67;100.00;101742.84;5065787;28;20036;-89
2024/01/07 03:43:33;;;;;;;49.17;32.45;;;;;;;0.65;100.00;101744.44;5066995;28;20498;-78
2024/01/07 03:45:59;;;;;;;49.22;32.67;;;;;;;0.62;100.00;101746.88;5069568;28;20067;-79
2024/01/07 03:48:26;;;;;;;47.38;31.40;;;;;;;0.63;100.00;101748.66;5066106;28;20439;-79
2024/01/07 03:50:51;;;;;;;45.50;30.58;;;;;;;0.65;100.00;101739.22;5058300;28;20361;-78
2024/01/07 03:53:16;;;;;;;45.85;30.30;;;;;;;0.68;100.00;101752.47;5065289;28;20032;-79
2024/01/07 03:55:42;;;;;;;43.70;29.52;;;;;;;0.68;100.00;101752.47;5068552;28;20090;-85
2024/01/07 03:58:07;;;;;;;41.72;27.90;;;;;;;0.67;100.00;101747.13;5065443;28;20032;-78
2024/01/07 04:00:33;;;;;;;42.17;28.63;;;;;;;0.68;100.00;101754.13;5066960;28;20112;-78
2024/01/07 04:02:58;;;;;;;40.13;26.85;;;;;;;0.66;100.00;101750.56;5066769;28;20025;-79
2024/01/07 04:05:24;;;;;;;40.42;27.15;;;;;;;0.63;100.00;101761.69;5065222;28;20108;-79
2024/01/07 04:07:49;;;;;;;40.83;27.80;;;;;;;0.66;100.00;101763.56;5058384;28;20021;-81
2024/01/07 04:10:16;;;;;;;40.78;27.20;;;;;;;0.64;100.00;101765.16;5068391;28;20424;-78
2024/01/07 04:12:42;;;;;;;40.88;26.48;;;;;;;0.64;100.00;101757.38;5064883;28;20028;-78
2024/01/07 04:15:08;;;;;;;40.88;26.65;;;;;;;0.64;100.00;101763.50;5066928;28;20051;-84
2024/01/07 04:17:33;;;;;;;40.45;26.67;;;;;;;0.62;100.00;101767.69;5058813;28;20055;-81
2024/01/07 04:19:58;;;;;;;37.80;24.65;;;;;;;0.64;100.00;101767.78;5066669;28;20052;-78
2024/01/07 04:22:23;;;;;;;40.05;26.77;;;;;;;0.64;100.00;101772.97;5064821;28;20025;-77
2024/01/07 04:24:49;;;;;;;38.83;26.45;;;;;;;0.63;100.00;101777.31;5058480;28;20031;-78
2024/01/07 04:27:14;;;;;;;39.78;25.70;;;;;;;0.60;100.00;101773.63;5067593;28;20099;-85
2024/01/07 04:29:40;;;;;;;38.28;25.42;;;;;;;0.64;100.00;101781.72;5064594;28;20040;-77
2024/01/07 04:32:05;;;;;;;39.35;26.02;;;;;;;0.55;100.00;101770.72;5030521;28;20489;-78
2024/01/07 04:34:30;;;;;;;39.03;25.50;;;;;;;0.64;100.00;101792.13;5020150;28;20037;-79
2024/01/07 04:36:56;;;;;;;39.97;25.95;;;;;;;0.55;100.00;101796.75;5025404;28;20370;-80
2024/01/07 04:39:21;;;;;;;38.15;25.27;;;;;;;0.55;100.00;101790.66;5027390;28;20463;-80
2024/01/07 04:41:46;;;;;;;38.28;25.27;;;;;;;0.57;100.00;101795.16;5027982;28;20592;-79
2024/01/07 04:44:12;;;;;;;41.20;25.88;;;;;;;0.55;100.00;101796.75;5027394;28;20064;-79
2024/01/07 04:46:38;;;;;;;39.88;26.20;;;;;;;0.58;100.00;101804.75;5024951;28;20090;-79
2024/01/07 04:49:05;;;;;;;40.63;26.17;;;;;;;0.59;100.00;101806.53;5025892;28;20025;-79
2024/01/07 04:51:31;;;;;;;39.15;25.85;;;;;;;0.57;100.00;101804.66;5020088;28;20537;-81
2024/01/07 04:53:56;;;;;;;39.75;25.92;;;;;;;0.59;100.00;101809.16;5025441;28;20032;-83
2024/01/07 04:56:21;;;;;;;37.97;24.70;;;;;;;0.58;100.00;101811.66;5027364;28;20037;-84
2024/01/07 04:58:47;;;;;;;38.20;24.65;;;;;;;0.58;100.00;101816.88;5024340;28;20079;-80
2024/01/07 05:01:12;;;;;;;38.20;24.42;;;;;;;0.56;100.00;101798.56;5027514;28;20107;-86
2024/01/07 05:03:37;;;;;;;37.25;24.50;;;;;;;0.56;100.00;101802.88;5025258;28;20026;-79
2024/01/07 05:06:04;;;;;;;36.85;24.20;;;;;;;0.53;100.00;101808.78;5015225;28;20022;-80
2024/01/07 05:08:29;;;;;;;36.10;23.13;;;;;;;0.54;100.00;101815.78;5033298;28;20108;-80
2024/01/07 05:10:55;;;;;;;36.65;24.75;;;;;;;0.52;100.00;101818.31;5025076;28;20477;-80
2024/01/07 05:13:20;;;;;;;33.00;22.13;;;;;;;0.50;100.00;101811.22;5027260;28;20021;-80
2024/01/07 05:15:53;;;;;;;32.92;21.48;;;;;;;0.52;100.00;101820.00;5024810;28;20418;-77
2024/01/07 05:18:20;;;;;;;34.15;21.85;;;;;;;0.51;100.00;101810.38;5019655;28;20558;-77
2024/01/07 05:20:45;;;;;;;32.17;20.92;;;;;;;0.50;100.00;101814.69;5024287;28;20384;-77
2024/01/07 05:23:10;;;;;;;29.52;19.40;;;;;;;0.51;100.00;101828.59;5027635;28;20025;-78
2024/01/07 05:25:36;;;;;;;30.27;19.33;;;;;;;0.48;100.00;101825.81;5027191;28;20096;-79
2024/01/07 05:28:01;;;;;;;30.00;19.00;;;;;;;0.47;100.00;101826.63;5026882;28;20057;-89
2024/01/07 05:30:27;;;;;;;29.67;19.50;;;;;;;0.49;100.00;101835.41;5030065;28;20042;-83
2024/01/07 05:32:52;;;;;;;30.17;19.25;;;;;;;0.49;100.00;101843.22;5064014;28;20115;-93
2024/01/07 05:35:18;;;;;;;31.67;20.85;;;;;;;0.48;100.00;101844.03;5067413;28;20035;-93
2024/01/07 05:37:43;;;;;;;31.52;21.13;;;;;;;0.51;100.00;101849.41;5063855;28;20464;-92
2024/01/07 05:40:09;;;;;;;31.30;20.90;;;;;;;0.49;100.00;101854.53;5066719;28;20044;-93
2024/01/07 05:42:35;;;;;;;29.30;19.20;;;;;;;0.48;100.00;101851.81;5064850;28;20035;-92
2024/01/07 05:45:00;;;;;;;29.30;19.38;;;;;;;0.47;100.00;101855.25;5048035;28;20036;-91
2024/01/07 05:47:25;;;;;;;28.95;19.08;;;;;;;0.43;100.00;101861.06;5059951;28;20110;-93
2024/01/07 05:49:51;;;;;;;29.08;18.85;;;;;;;0.44;100.00;101866.38;5050931;28;20033;-89
2024/01/07 05:52:17;;;;;;;29.05;19.27;;;;;;;0.39;100.00;101865.16;5057032;28;20115;-91
2024/01/07 05:54:42;;;;;;;28.75;19.30;;;;;;;0.40;100.00;101869.56;5045531;28;20126;-93
2024/01/07 05:57:07;;;;;;;29.15;19.45;;;;;;;0.43;100.00;101866.28;5065163;28;20029;-90
2024/01/07 05:59:33;;;;;;;29.85;20.05;;;;;;;0.42;100.00;101873.16;5064168;28;20078;-89
2024/01/07 06:01:59;;;;;;;29.75;19.63;;;;;;;0.43;100.00;101874.97;5063652;28;20025;-92
2024/01/07 06:04:24;;;;;;;28.75;19.13;;;;;;;0.42;100.00;101872.28;5064868;28;20029;-91
2024/01/07 06:06:50;;;;;;;30.35;20.02;;;;;;;0.44;100.00;101870.69;5062263;28;20160;-91
2024/01/07 06:09:15;;;;;;;27.98;18.38;;;;;;;0.42;100.00;101880.06;5039629;28;20056;-81
2024/01/07 06:11:40;;;;;;;28.92;19.02;;;;;;;0.40;100.00;101893.00;5066649;28;20027;-92
2024/01/07 06:14:06;;;;;;;27.98;18.15;;;;;;;0.36;100.00;101892.72;5064890;28;20028;-92
2024/01/07 06:16:31;;;;;;;27.52;18.23;;;;;;;0.40;100.00;101895.59;5065369;28;20083;-93
2024/01/07 06:18:57;;;;;;;26.48;17.60;;;;;;;0.34;100.00;101896.09;5065369;28;20082;-80
2024/01/07 06:21:22;;;;;;;26.73;17.60;;;;;;;0.34;100.00;101890.03;5062505;28;20036;-79
2024/01/07 06:23:47;;;;;;;26.10;16.80;;;;;;;0.31;100.00;101895.91;5065202;28;20025;-79
2024/01/07 06:26:13;;;;;;;26.17;16.83;;;;;;;0.25;100.00;101898.13;5027595;28;20060;-80
2024/01/07 06:28:38;;;;;;;26.85;17.08;;;;;;;0.26;100.00;101902.56;5064421;28;20079;-82
2024/01/07 06:31:04;;;;;;;26.50;17.30;;;;;;;0.29;100.00;101907.94;5063125;28;20128;-80
2024/01/07 06:33:29;;;;;;;27.05;18.02;;;;;;;0.28;100.00;101911.34;5062928;28;20032;-79
2024/01/07 06:35:54;;;;;;;27.73;17.85;;;;;;;0.29;100.00;101918.34;5064887;28;20028;-78
2024/01/07 06:38:20;;;;;;;29.30;20.13;;;;;;;0.30;100.00;101922.72;5061831;28;20036;-77
2024/01/07 06:40:45;;;;;;;30.08;21.02;;;;;;;0.34;100.00;101924.72;5062003;28;20096;-78
2024/01/07 06:43:11;;;;;;;30.05;20.67;;;;;;;0.36;100.00;101934.34;5064291;28;20033;-79
2024/01/07 06:45:36;;;;;;;31.00;21.33;;;;;;;0.34;100.00;101940.34;5062923;28;20115;-78
2024/01/07 06:48:01;;;;;;;31.63;21.88;;;;;;;0.31;100.00;101937.53;5063221;28;20412;-78
2024/01/07 06:50:27;;;;;;;31.80;22.58;;;;;;;0.34;100.00;101939.44;5063778;28;20116;-77
2024/01/07 06:52:52;;;;;;;32.63;22.70;;;;;;;0.30;100.00;101945.25;5044587;28;20053;-79
2024/01/07 06:55:17;;;;;;;32.30;23.42;;;;;;;0.28;100.00;101947.75;5043526;28;20033;-78
2024/01/07 06:57:42;;;;;;;33.55;23.80;;;;;;;0.31;100.00;101949.66;5064667;28;20036;-78
2024/01/07 07:00:08;;;;;;;33.85;24.38;;;;;;;0.26;100.00;101951.97;5062458;28;20111;-78
2024/01/07 07:02:34;;;;;;;33.53;24.02;;;;;;;0.27;100.00;101956.34;5064846;28;20465;-79
2024/01/07 07:04:59;;;;;;;33.13;23.92;;;;;;;0.28;100.00;101957.28;5065476;28;20020;-78
2024/01/07 07:07:24;;;;;;;32.60;23.02;;;;;;;0.27;100.00;101961.56;5050760;28;20036;-80
2024/01/07 07:09:50;;;;;;;33.50;24.08;;;;;;;0.30;100.00;101963.47;5065015;28;20101;-82
2024/01/07 07:12:15;;;;;;;33.13;23.98;;;;;;;0.28;100.00;101965.97;5061865;28;20021;-81
2024/01/07 07:14:41;;;;;;;33.22;23.95;;;;;;;0.28;100.00;101972.88;5064494;28;20031;-80
2024/01/07 07:17:06;;;;;;;33.20;24.08;;;;;;;0.29;100.00;101975.56;5062804;28;20123;-79
2024/01/07 07:19:31;;;;;;;33.50;24.20;;;;;;;0.28;100.00;101978.97;5051505;28;20044;-81
2024/01/07 07:21:57;;;;;;;32.28;23.55;;;;;;;0.28;100.00;101978.97;5064140;28;20039;-85
2024/01/07 07:24:22;;;;;;;32.95;24.42;;;;;;;0.17;100.00;101979.97;5061513;28;20028;-81
2024/01/07 07:26:47;;;;;;;34.47;24.27;;;;;;;0.21;100.00;101988.88;5064785;28;20031;-81
2024/01/07 07:29:13;;;;;;;33.25;24.48;;;;;;;0.15;100.00;101985.06;5043807;28;20040;-79
2024/01/07 07:31:38;;;;;;;33.88;24.90;;;;;;;0.20;100.00;101993.16;5063672;28;20059;-84
2024/01/07 07:34:04;;;;;;;33.00;23.48;;;;;;;0.19;100.00;101998.28;5063093;28;20516;-78
2024/01/07 07:36:30;;;;;;;32.67;24.05;;;;;;;0.17;100.00;101990.38;5062914;28;20029;-78
2024/01/07 07:38:55;;;;;;;31.33;22.65;;;;;;;0.17;100.00;102005.97;5055339;28;20118;-85
2024/01/07 07:41:20;;;;;;;32.35;23.23;;;;;;;0.15;100.00;102007.59;5064597;28;20023;-84
2024/01/07 07:43:46;;;;;;;28.70;19.45;;;;;;;0.16;100.00;102017.19;5061495;28;20037;-80
2024/01/07 07:46:11;;;;;;;28.70;19.25;;;;;;;0.11;100.00;102026.41;5064073;28;20025;-83
2024/01/07 07:48:37;;;;;;;27.70;18.20;;;;;;;0.10;100.00;102032.38;5062915;28;20033;-83
2024/01/07 07:51:03;;;;;;;27.92;17.95;;;;;;;0.07;100.00;102040.88;5062779;28;20037;-80
2024/01/07 07:53:28;;;;;;;27.33;17.50;;;;;;;0.06;100.00;102044.31;5060470;28;20480;-80
2024/01/07 07:55:54;;;;;;;27.25;17.25;;;;;;;0.03;100.00;102043.19;5064535;28;20033;-90
2024/01/07 07:58:19;;;;;;;27.48;17.05;;;;;;;-0.02;100.00;102054.16;5061206;28;20112;-90
2024/01/07 08:00:45;;;;;;;26.27;16.60;;;;;;;0.02;100.00;102046.59;5064883;28;20076;-84
2024/01/07 08:03:10;;;;;;;27.30;17.40;;;;;;;-0.02;100.00;102055.88;5062366;28;20033;-84
2024/01/07 08:05:36;;;;;;;27.77;18.30;;;;;;;-0.01;100.00;102055.09;5063809;28;20033;-80
2024/01/07 08:08:01;;;;;;;27.65;17.92;;;;;;;0.02;100.00;102057.00;5064595;28;20431;-82
2024/01/07 08:10:28;;;;;;;28.33;18.02;;;;;;;0.00;100.00;102062.09;5064452;28;20035;-86
2024/01/07 08:12:54;;;;;;;29.42;19.75;;;;;;;-0.01;100.00;102058.59;5062683;28;20056;-81
2024/01/07 08:15:19;;;;;;;27.50;18.20;;;;;;;-0.01;100.00;102058.59;5038831;28;20491;-82
2024/01/07 08:17:44;;;;;;;28.42;18.50;;;;;;;-0.02;100.00;102067.16;5066307;28;20433;-84
2024/01/07 08:20:10;;;;;;;29.00;19.48;;;;;;;-0.01;100.00;102063.78;5063057;28;20035;-82
2024/01/07 08:22:36;;;;;;;27.85;18.40;;;;;;;0.03;100.00;102076.97;5046378;28;20029;-89
2024/01/07 08:25:01;;;;;;;28.45;18.23;;;;;;;0.00;100.00;102075.09;5058132;28;20033;-83
2024/01/07 08:27:27;;;;;;;27.67;17.70;;;;;;;0.07;100.00;102069.47;5049564;28;20037;-81
2024/01/07 08:29:53;;;;;;;29.05;20.38;;;;;;;0.01;100.00;102082.09;5068255;28;20040;-84
2024/01/07 08:32:19;;;;;;;28.05;18.08;;;;;;;-0.01;100.00;102084.59;5071044;28;20045;-90
2024/01/07 08:34:44;;;;;;;28.52;18.17;;;;;;;-0.02;100.00;102082.78;5071481;28;20036;-82
2024/01/07 08:37:10;;;;;;;27.95;17.70;;;;;;;-0.04;100.00;102089.59;5058554;28;20028;-92
2024/01/07 08:39:36;;;;;;;27.02;17.55;;;;;;;-0.04;100.00;102092.19;5062244;28;20400;-93
2024/01/07 08:42:03;;;;;;;27.33;17.17;;;;;;;-0.06;100.00;102096.38;5074462;28;20037;-94
2024/01/07 08:44:29;;;;;;;27.40;17.48;;;;;;;-0.07;100.00;102094.56;5072874;28;20125;-88
2024/01/07 08:46:54;;;;;;;27.17;18.02;;;;;;;-0.07;100.00;102098.88;5076108;28;20096;-90
2024/01/07 08:49:19;;;;;;;27.75;17.75;;;;;;;-0.05;100.00;102098.16;5068846;28;20496;-94
2024/01/07 08:51:45;;;;;;;26.77;16.48;;;;;;;-0.09;100.00;102098.75;5076602;28;20029;-83
2024/01/07 08:54:10;;;;;;;26.85;16.75;;;;;;;-0.02;100.00;102111.38;5052512;28;20039;-83
2024/01/07 08:56:36;;;;;;;26.38;16.67;;;;;;;-0.01;100.00;102105.38;5069324;28;20033;-95
2024/01/07 08:59:01;;;;;;;26.25;16.55;;;;;;;-0.04;100.00;102115.59;5068444;28;20383;-80
2024/01/07 09:01:26;;;;;;;26.13;16.63;;;;;;;-0.04;100.00;102114.69;5054269;28;20025;-79
2024/01/07 09:03:52;;;;;;;27.27;17.25;;;;;;;-0.05;100.00;102118.97;5059285;28;20036;-79
2024/01/07 09:06:17;;;;;;;26.60;17.30;;;;;;;-0.05;100.00;102118.97;5069117;28;20138;-79
2024/01/07 09:08:43;;;;;;;26.45;16.30;;;;;;;-0.07;100.00;102117.09;5066232;28;20423;-81
2024/01/07 09:11:11;;;;;;;26.05;16.60;;;;;;;-0.06;100.00;102129.25;5068797;28;20440;-79
2024/01/07 09:13:37;;;;;;;25.85;15.90;;;;;;;-0.07;100.00;102136.19;5069228;28;20036;-82
2024/01/07 09:16:02;;;;;;;25.70;16.27;;;;;;;-0.05;100.00;102139.78;5070844;28;20123;-78
2024/01/07 09:18:27;;;;;;;26.08;16.02;;;;;;;-0.07;100.00;102136.19;5072115;28;20068;-86
2024/01/07 09:20:53;;;;;;;25.23;16.08;;;;;;;-0.06;100.00;102139.66;5068480;28;20040;-89
2024/01/07 09:23:18;;;;;;;25.00;15.38;;;;;;;-0.05;100.00;102149.28;5069704;28;20032;-84
2024/01/07 09:25:43;;;;;;;24.02;14.90;;;;;;;-0.08;100.00;102144.75;5067388;28;20044;-90
2024/01/07 09:28:09;;;;;;;25.05;16.05;;;;;;;-0.09;100.00;102155.06;5068981;28;20033;-83
2024/01/07 09:30:35;;;;;;;24.63;14.70;;;;;;;-0.08;100.00;102155.16;5067796;28;20036;-89
2024/01/07 09:33:01;;;;;;;24.60;15.48;;;;;;;-0.09;100.00;102163.75;5067634;28;20041;-91
2024/01/07 09:35:26;;;;;;;24.45;15.27;;;;;;;-0.07;100.00;102169.97;5060781;28;20090;-79
2024/01/07 09:37:51;;;;;;;24.10;14.52;;;;;;;-0.04;100.00;102170.19;5070163;28;20056;-82
2024/01/07 09:40:20;;;;;;;25.05;15.98;;;;;;;0.00;100.00;102171.31;5066406;28;20037;-85
2024/01/07 09:42:46;;;;;;;24.80;15.38;;;;;;;0.02;100.00;102166.22;5058848;28;20080;-79
2024/01/07 09:45:13;;;;;;;24.13;14.93;;;;;;;0.02;100.00;102177.50;5063879;28;20102;-80
2024/01/07 09:47:44;;;;;;;25.02;15.32;;;;;;;0.07;100.00;102185.63;5065877;28;20021;-79
2024/01/07 09:50:10;;;;;;;24.52;14.80;;;;;;;0.07;100.00;102186.50;5039798;28;20399;-82
2024/01/07 09:52:38;;;;;;;24.77;15.63;;;;;;;-0.02;100.00;102186.78;5064753;28;20031;-79
2024/01/07 09:55:08;;;;;;;23.90;14.15;;;;;;;0.02;100.00;102194.81;5053323;28;20108;-80
2024/01/07 09:57:34;;;;;;;24.08;14.05;;;;;;;-0.10;100.00;102195.78;5065524;28;20039;-80
2024/01/07 10:00:01;;;;;;;23.13;14.18;;;;;;;-0.08;100.00;102199.38;5064720;28;20468;-78
2024/01/07 10:02:26;;;;;;;22.92;13.70;;;;;;;-0.11;100.00;102200.88;5065751;28;20104;-78
2024/01/07 10:04:52;;;;;;;22.80;13.50;;;;;;;-0.18;100.00;102199.53;5068014;28;20110;-85
2024/01/07 10:07:17;;;;;;;23.25;13.75;;;;;;;-0.09;100.00;102209.66;5059695;28;20031;-83
2024/01/07 10:09:43;;;;;;;23.77;14.90;;;;;;;-0.09;100.00;102217.47;5045857;28;20025;-83
2024/01/07 10:12:09;;;;;;;23.25;13.80;;;;;;;-0.14;100.00;102221.44;5064594;28;20026;-83
2024/01/07 10:14:34;;;;;;;23.88;14.13;;;;;;;-0.13;100.00;102218.03;5046172;28;20086;-81
2024/01/07 10:17:00;;;;;;;23.88;14.55;;;;;;;-0.14;100.00;102218.84;5051701;28;20383;-79
2024/01/07 10:19:25;;;;;;;23.95;14.55;;;;;;;-0.13;100.00;102233.63;5053037;28;20065;-90
2024/01/07 10:22:03;;;;;;;23.67;15.07;;;;;;;-0.14;100.00;102230.13;5066090;28;20056;-79
2024/01/07 10:24:39;;;;;;;24.00;14.38;;;;;;;-0.13;100.00;102226.75;5065572;28;20021;-78
2024/01/07 10:27:06;;;;;;;24.40;15.57;;;;;;;-0.13;100.00;102226.75;5064088;28;20020;-81
2024/01/07 10:29:32;;;;;;;24.02;14.40;;;;;;;-0.08;100.00;102230.56;5063223;28;20503;-79
2024/01/07 10:32:02;;;;;;;24.00;14.68;;;;;;;-0.11;100.00;102222.56;5055109;28;20530;-79
2024/01/07 10:34:29;;;;;;;24.67;15.45;;;;;;;-0.07;100.00;102232.38;5066651;28;20071;-78
2024/01/07 10:36:58;;;;;;;24.38;15.32;;;;;;;-0.11;100.00;102234.66;5062163;28;20469;-86
2024/01/07 10:39:23;;;;;;;24.83;15.77;;;;;;;-0.09;100.00;102231.34;5065414;28;20127;-83
2024/01/07 10:41:50;;;;;;;24.20;14.80;;;;;;;-0.09;100.00;102231.34;5065550;28;20476;-83
2024/01/07 10:44:16;;;;;;;23.33;14.38;;;;;;;-0.08;100.00;102230.56;5062019;28;20040;-80
2024/01/07 10:46:43;;;;;;;24.52;15.98;;;;;;;-0.08;100.00;102233.16;5064302;28;20108;-80
2024/01/07 10:49:23;;;;;;;24.35;15.48;;;;;;;-0.08;100.00;102233.16;5056128;28;20119;-81
2024/01/07 10:52:05;;;;;;;24.30;15.05;;;;;;;-0.01;100.00;102232.78;5061737;28;20025;-79
2024/01/07 10:54:33;;;;;;;25.25;15.88;;;;;;;0.03;100.00;102233.00;5065677;28;20048;-78
2024/01/07 10:57:20;;;;;;;24.95;15.88;;;;;;;0.03;100.00;102230.41;5064500;28;20025;-79
2024/01/07 10:59:46;;;;;;;25.02;15.73;;;;;;;0.01;100.00;102232.00;5063863;28;20110;-78
2024/01/07 11:02:13;;;;;;;25.45;16.17;;;;;;;0.04;100.00;102237.41;5062266;28;20023;-79